Delta Billie — WDE8059 — position and weather

sailwx.info

Track history (hours):
 
Tides and Currents Weather Stations Pressure Air Temp Water Temp Dewpoint Dewpoint Depression Visibility Wind Speed Wind Dir Waves Ship Positions

Delta Billie

Owner: Baydelta Maritime, San Francicso, CA. More information available from US FCC via Universal Licensing System and Coast Guard Vessel Documentation Center.

Last reported at 2014-Oct-25 00:13 UTC. Time now 2014-Oct-25 05:41 UTC.
Position N 38°02' W 122°08'.

Length 30 m; draft 5.5 m.

Type: Towing. MMSI: 367401030.

Date/timePositionNaut miles runAvg speedWind from/ knotsBaromVisibWave heightAir tempDewpointWater temp
2014-Oct-25 00:13N 38°02' W 122°08'0 0.0
2014-Oct-23 19:27N 38°02' W 122°08'0 0.1
2014-Oct-23 18:18N 38°02' W 122°08'7 3.6
2014-Oct-23 16:18N 38°03' W 122°17'7 9.6
2014-Oct-23 15:33N 37°60' W 122°25'9 9.3
2014-Oct-23 14:33N 37°51' W 122°23'4 3.7
2014-Oct-23 13:33N 37°48' W 122°19'1 0.8
2014-Oct-23 12:33N 37°48' W 122°20'3 2.7
2014-Oct-23 11:33N 37°48' W 122°24'0 0.0
2014-Oct-23 10:34N 37°48' W 122°24'0 0.0
2014-Oct-23 09:34N 37°48' W 122°24'0 0.0
2014-Oct-23 08:34N 37°48' W 122°24'0 0.0
2014-Oct-23 07:34N 37°48' W 122°24'0 0.0
2014-Oct-23 06:34N 37°48' W 122°24'0 0.0
2014-Oct-23 05:33N 37°48' W 122°24'0 0.0
2014-Oct-23 04:34N 37°48' W 122°24'0 0.0
2014-Oct-23 03:34N 37°48' W 122°24'0 0.0
2014-Oct-23 02:33N 37°48' W 122°24'0 0.0
2014-Oct-23 01:34N 37°48' W 122°24'5 4.6
2014-Oct-23 00:34N 37°45' W 122°20'6 5.7
2014-Oct-22 23:34N 37°49' W 122°25'5 5.1
2014-Oct-22 22:34N 37°49' W 122°31'4 3.8
2014-Oct-22 21:34N 37°49' W 122°26'2 2.2
2014-Oct-22 20:34N 37°48' W 122°24'0 0.0
2014-Oct-22 19:33N 37°48' W 122°24'0 0.0
2014-Oct-22 18:33N 37°48' W 122°24'0 0.0
2014-Oct-22 17:33N 37°48' W 122°24'0 0.0
2014-Oct-22 16:33N 37°48' W 122°24'0 0.0
2014-Oct-22 15:33N 37°48' W 122°24'0 0.0
2014-Oct-22 14:34N 37°48' W 122°24'0 0.0
2014-Oct-22 13:33N 37°48' W 122°24'0 0.0
2014-Oct-22 12:34N 37°48' W 122°24'0 0.0
2014-Oct-22 11:34N 37°48' W 122°24'0 0.0
2014-Oct-22 10:33N 37°48' W 122°24'3 2.8
2014-Oct-22 09:34N 37°49' W 122°20'3 2.8
2014-Oct-22 08:34N 37°48' W 122°24'0 0.0
2014-Oct-22 07:34N 37°48' W 122°24'0 0.0
2014-Oct-22 06:34N 37°48' W 122°24'0 0.1
2014-Oct-22 05:33N 37°48' W 122°24'5 4.7
2014-Oct-22 04:34N 37°48' W 122°18'0 0.3
2014-Oct-22 03:33N 37°48' W 122°18'4 4.5
2014-Oct-22 02:34N 37°48' W 122°24'0 0.0
2014-Oct-22 01:33N 37°48' W 122°24'0 0.0
2014-Oct-22 00:33N 37°48' W 122°24'0 0.0
2014-Oct-21 23:33N 37°48' W 122°24'0 0.0
2014-Oct-21 22:34N 37°48' W 122°24'0 0.0
2014-Oct-21 21:33N 37°48' W 122°24'6 6.3
2014-Oct-21 20:33N 37°54' W 122°24'2 1.5
2014-Oct-21 19:34N 37°55' W 122°22'0 0.0
2014-Oct-21 18:33N 37°55' W 122°22'1 0.7
2014-Oct-21 17:34N 37°54' W 122°22'1 1.1
2014-Oct-21 16:34N 37°54' W 122°23'0 0.0
2014-Oct-21 15:34N 37°54' W 122°23'0 0.0
2014-Oct-21 14:34N 37°54' W 122°23'0 0.0
2014-Oct-21 13:33N 37°54' W 122°23'0 0.0
2014-Oct-21 12:34N 37°54' W 122°23'0 0.0
2014-Oct-21 11:34N 37°54' W 122°23'0 0.0
2014-Oct-21 10:34N 37°54' W 122°23'0 0.2
2014-Oct-21 09:34N 37°54' W 122°23'8 7.7
2014-Oct-21 08:33N 37°49' W 122°30'5 5.3
2014-Oct-21 07:34N 37°52' W 122°25'9 9.0
2014-Oct-21 06:33N 38°01' W 122°24'8 8.4
2014-Oct-21 05:33N 38°04' W 122°13'0 0.0
2014-Oct-20 06:16N 38°04' W 122°14'7 8.9
2014-Oct-20 05:28N 38°02' W 122°22'910.0
2014-Oct-20 04:34N 37°53' W 122°26'8 8.1
2014-Oct-20 03:34N 37°46' W 122°21'0 0.2
2014-Oct-20 02:33N 37°46' W 122°21'3 3.3
2014-Oct-20 01:34N 37°48' W 122°24'0 0.0
2014-Oct-20 00:33N 37°48' W 122°24'0 0.0
2014-Oct-19 23:34N 37°48' W 122°24'0 0.0
2014-Oct-19 22:33N 37°48' W 122°24'0 0.0
2014-Oct-19 21:34N 37°48' W 122°24'0 0.0
2014-Oct-19 20:34N 37°48' W 122°24'0 0.0
2014-Oct-19 19:34N 37°48' W 122°24'0 0.0
2014-Oct-19 18:34N 37°48' W 122°24'5 5.5
2014-Oct-19 17:34N 37°54' W 122°25'3 2.7
2014-Oct-19 16:33N 37°55' W 122°22'2 2.3
2014-Oct-19 15:34N 37°55' W 122°25'0 0.1
2014-Oct-19 14:34N 37°55' W 122°25'0 0.0
2014-Oct-19 13:34N 37°55' W 122°25'0 0.0
2014-Oct-19 12:34N 37°55' W 122°25'7 6.9
2014-Oct-19 11:34N 37°49' W 122°29'1 1.5
2014-Oct-19 10:34N 37°49' W 122°31'3 2.9
2014-Oct-19 09:34N 37°49' W 122°28'5 4.7
2014-Oct-19 08:34N 37°54' W 122°26'6 6.0
2014-Oct-19 07:34N 37°60' W 122°25'5 4.7
2014-Oct-19 06:33N 38°03' W 122°20'4 3.6
2014-Oct-19 05:30N 38°04' W 122°15'5 2.6
2014-Oct-19 03:29N 38°02' W 122°09'4 0.3
2014-Oct-18 14:32N 38°04' W 122°13'0 0.3
2014-Oct-18 13:33N 38°04' W 122°13'0 0.0
2014-Oct-18 01:10N 38°03' W 122°13'0 0.2
2014-Oct-18 00:33N 38°04' W 122°13'2 1.8
2014-Oct-17 23:20N 38°03' W 122°16'6 0.8
2014-Oct-17 15:27N 38°02' W 122°08'0 0.0
2014-Oct-17 05:33N 38°02' W 122°08'1 0.1
2014-Oct-16 16:29N 38°02' W 122°07'5 4.9
2014-Oct-16 15:33N 38°04' W 122°13'1111.1
2014-Oct-16 14:33N 37°59' W 122°26'9 9.5
2014-Oct-16 13:33N 37°50' W 122°28'1 1.0
2014-Oct-16 12:34N 37°49' W 122°29'7 7.0
2014-Oct-16 11:34N 37°56' W 122°25'0 0.0
2014-Oct-16 10:34N 37°56' W 122°25'0 0.4
2014-Oct-16 09:34N 37°55' W 122°25'2 2.0
2014-Oct-16 08:34N 37°53' W 122°25'5 5.2
2014-Oct-16 07:33N 37°48' W 122°24'0 0.0
2014-Oct-16 06:34N 37°48' W 122°24'0 0.0
2014-Oct-16 05:33N 37°48' W 122°24'0 0.0
2014-Oct-16 04:34N 37°48' W 122°24'0 0.0
2014-Oct-16 03:34N 37°48' W 122°24'0 0.0
2014-Oct-16 02:34N 37°48' W 122°24'0 0.2
2014-Oct-16 01:34N 37°48' W 122°24'2 1.9
2014-Oct-16 00:34N 37°47' W 122°22'10 9.6
2014-Oct-15 23:34N 37°55' W 122°27'9 9.4
2014-Oct-15 22:34N 38°03' W 122°20'9 8.6
2014-Oct-15 21:30N 38°02' W 122°08'5 0.9
2014-Oct-15 16:30N 38°04' W 122°14'9 9.7
2014-Oct-15 15:33N 38°00' W 122°24'9 9.1
2014-Oct-15 14:34N 37°51' W 122°23'5 4.8
2014-Oct-15 13:34N 37°48' W 122°19'3 3.1
2014-Oct-15 12:34N 37°48' W 122°23'1 0.8
2014-Oct-15 11:34N 37°48' W 122°24'0 0.0
2014-Oct-15 10:34N 37°48' W 122°24'0 0.0
2014-Oct-15 09:34N 37°48' W 122°24'0 0.0
2014-Oct-15 08:34N 37°48' W 122°24'0 0.0
2014-Oct-15 07:34N 37°48' W 122°24'0 0.0
2014-Oct-15 06:34N 37°48' W 122°24'0 0.0
2014-Oct-15 05:34N 37°48' W 122°24'9 9.4
2014-Oct-15 04:33N 37°57' W 122°26'1010.0
2014-Oct-15 03:31N 38°04' W 122°15'  
Track history (hours):
 
Tides and Currents Weather Stations Pressure Air Temp Water Temp Dewpoint Dewpoint Depression Visibility Wind Speed Wind Dir Waves Ship Positions

Delta Billie

Owner: Baydelta Maritime, San Francicso, CA. More information available from US FCC via Universal Licensing System and Coast Guard Vessel Documentation Center.

Last reported at 2014-Oct-25 00:13 UTC. Time now 2014-Oct-25 05:41 UTC.
Position N 38°02' W 122°08'.

Length 30 m; draft 5.5 m.

Type: Towing. MMSI: 367401030.

Date/timePositionNaut miles runAvg speedWind from/ knotsBaromVisibWave heightAir tempDewpointWater temp
2014-Oct-25 00:13N 38°02' W 122°08'0 0.0
2014-Oct-23 19:27N 38°02' W 122°08'0 0.1
2014-Oct-23 18:18N 38°02' W 122°08'7 3.6
2014-Oct-23 16:18N 38°03' W 122°17'7 9.6
2014-Oct-23 15:33N 37°60' W 122°25'9 9.3
2014-Oct-23 14:33N 37°51' W 122°23'4 3.7
2014-Oct-23 13:33N 37°48' W 122°19'1 0.8
2014-Oct-23 12:33N 37°48' W 122°20'3 2.7
2014-Oct-23 11:33N 37°48' W 122°24'0 0.0
2014-Oct-23 10:34N 37°48' W 122°24'0 0.0
2014-Oct-23 09:34N 37°48' W 122°24'0 0.0
2014-Oct-23 08:34N 37°48' W 122°24'0 0.0
2014-Oct-23 07:34N 37°48' W 122°24'0 0.0
2014-Oct-23 06:34N 37°48' W 122°24'0 0.0
2014-Oct-23 05:33N 37°48' W 122°24'0 0.0
2014-Oct-23 04:34N 37°48' W 122°24'0 0.0
2014-Oct-23 03:34N 37°48' W 122°24'0 0.0
2014-Oct-23 02:33N 37°48' W 122°24'0 0.0
2014-Oct-23 01:34N 37°48' W 122°24'5 4.6
2014-Oct-23 00:34N 37°45' W 122°20'6 5.7
2014-Oct-22 23:34N 37°49' W 122°25'5 5.1
2014-Oct-22 22:34N 37°49' W 122°31'4 3.8
2014-Oct-22 21:34N 37°49' W 122°26'2 2.2
2014-Oct-22 20:34N 37°48' W 122°24'0 0.0
2014-Oct-22 19:33N 37°48' W 122°24'0 0.0
2014-Oct-22 18:33N 37°48' W 122°24'0 0.0
2014-Oct-22 17:33N 37°48' W 122°24'0 0.0
2014-Oct-22 16:33N 37°48' W 122°24'0 0.0
2014-Oct-22 15:33N 37°48' W 122°24'0 0.0
2014-Oct-22 14:34N 37°48' W 122°24'0 0.0
2014-Oct-22 13:33N 37°48' W 122°24'0 0.0
2014-Oct-22 12:34N 37°48' W 122°24'0 0.0
2014-Oct-22 11:34N 37°48' W 122°24'0 0.0
2014-Oct-22 10:33N 37°48' W 122°24'3 2.8
2014-Oct-22 09:34N 37°49' W 122°20'3 2.8
2014-Oct-22 08:34N 37°48' W 122°24'0 0.0
2014-Oct-22 07:34N 37°48' W 122°24'0 0.0
2014-Oct-22 06:34N 37°48' W 122°24'0 0.1
2014-Oct-22 05:33N 37°48' W 122°24'5 4.7
2014-Oct-22 04:34N 37°48' W 122°18'0 0.3
2014-Oct-22 03:33N 37°48' W 122°18'4 4.5
2014-Oct-22 02:34N 37°48' W 122°24'0 0.0
2014-Oct-22 01:33N 37°48' W 122°24'0 0.0
2014-Oct-22 00:33N 37°48' W 122°24'0 0.0
2014-Oct-21 23:33N 37°48' W 122°24'0 0.0
2014-Oct-21 22:34N 37°48' W 122°24'0 0.0
2014-Oct-21 21:33N 37°48' W 122°24'6 6.3
2014-Oct-21 20:33N 37°54' W 122°24'2 1.5
2014-Oct-21 19:34N 37°55' W 122°22'0 0.0
2014-Oct-21 18:33N 37°55' W 122°22'1 0.7
2014-Oct-21 17:34N 37°54' W 122°22'1 1.1
2014-Oct-21 16:34N 37°54' W 122°23'0 0.0
2014-Oct-21 15:34N 37°54' W 122°23'0 0.0
2014-Oct-21 14:34N 37°54' W 122°23'0 0.0
2014-Oct-21 13:33N 37°54' W 122°23'0 0.0
2014-Oct-21 12:34N 37°54' W 122°23'0 0.0
2014-Oct-21 11:34N 37°54' W 122°23'0 0.0
2014-Oct-21 10:34N 37°54' W 122°23'0 0.2
2014-Oct-21 09:34N 37°54' W 122°23'8 7.7
2014-Oct-21 08:33N 37°49' W 122°30'5 5.3
2014-Oct-21 07:34N 37°52' W 122°25'9 9.0
2014-Oct-21 06:33N 38°01' W 122°24'8 8.4
2014-Oct-21 05:33N 38°04' W 122°13'0 0.0
2014-Oct-20 06:16N 38°04' W 122°14'7 8.9
2014-Oct-20 05:28N 38°02' W 122°22'910.0
2014-Oct-20 04:34N 37°53' W 122°26'8 8.1
2014-Oct-20 03:34N 37°46' W 122°21'0 0.2
2014-Oct-20 02:33N 37°46' W 122°21'3 3.3
2014-Oct-20 01:34N 37°48' W 122°24'0 0.0
2014-Oct-20 00:33N 37°48' W 122°24'0 0.0
2014-Oct-19 23:34N 37°48' W 122°24'0 0.0
2014-Oct-19 22:33N 37°48' W 122°24'0 0.0
2014-Oct-19 21:34N 37°48' W 122°24'0 0.0
2014-Oct-19 20:34N 37°48' W 122°24'0 0.0
2014-Oct-19 19:34N 37°48' W 122°24'0 0.0
2014-Oct-19 18:34N 37°48' W 122°24'5 5.5
2014-Oct-19 17:34N 37°54' W 122°25'3 2.7
2014-Oct-19 16:33N 37°55' W 122°22'2 2.3
2014-Oct-19 15:34N 37°55' W 122°25'0 0.1
2014-Oct-19 14:34N 37°55' W 122°25'0 0.0
2014-Oct-19 13:34N 37°55' W 122°25'0 0.0
2014-Oct-19 12:34N 37°55' W 122°25'7 6.9
2014-Oct-19 11:34N 37°49' W 122°29'1 1.5
2014-Oct-19 10:34N 37°49' W 122°31'3 2.9
2014-Oct-19 09:34N 37°49' W 122°28'5 4.7
2014-Oct-19 08:34N 37°54' W 122°26'6 6.0
2014-Oct-19 07:34N 37°60' W 122°25'5 4.7
2014-Oct-19 06:33N 38°03' W 122°20'4 3.6
2014-Oct-19 05:30N 38°04' W 122°15'5 2.6
2014-Oct-19 03:29N 38°02' W 122°09'4 0.3
2014-Oct-18 14:32N 38°04' W 122°13'0 0.3
2014-Oct-18 13:33N 38°04' W 122°13'0 0.0
2014-Oct-18 01:10N 38°03' W 122°13'0 0.2
2014-Oct-18 00:33N 38°04' W 122°13'2 1.8
2014-Oct-17 23:20N 38°03' W 122°16'6 0.8
2014-Oct-17 15:27N 38°02' W 122°08'0 0.0
2014-Oct-17 05:33N 38°02' W 122°08'1 0.1
2014-Oct-16 16:29N 38°02' W 122°07'5 4.9
2014-Oct-16 15:33N 38°04' W 122°13'1111.1
2014-Oct-16 14:33N 37°59' W 122°26'9 9.5
2014-Oct-16 13:33N 37°50' W 122°28'1 1.0
2014-Oct-16 12:34N 37°49' W 122°29'7 7.0
2014-Oct-16 11:34N 37°56' W 122°25'0 0.0
2014-Oct-16 10:34N 37°56' W 122°25'0 0.4
2014-Oct-16 09:34N 37°55' W 122°25'2 2.0
2014-Oct-16 08:34N 37°53' W 122°25'5 5.2
2014-Oct-16 07:33N 37°48' W 122°24'0 0.0
2014-Oct-16 06:34N 37°48' W 122°24'0 0.0
2014-Oct-16 05:33N 37°48' W 122°24'0 0.0
2014-Oct-16 04:34N 37°48' W 122°24'0 0.0
2014-Oct-16 03:34N 37°48' W 122°24'0 0.0
2014-Oct-16 02:34N 37°48' W 122°24'0 0.2
2014-Oct-16 01:34N 37°48' W 122°24'2 1.9
2014-Oct-16 00:34N 37°47' W 122°22'10 9.6
2014-Oct-15 23:34N 37°55' W 122°27'9 9.4
2014-Oct-15 22:34N 38°03' W 122°20'9 8.6
2014-Oct-15 21:30N 38°02' W 122°08'5 0.9
2014-Oct-15 16:30N 38°04' W 122°14'9 9.7
2014-Oct-15 15:33N 38°00' W 122°24'9 9.1
2014-Oct-15 14:34N 37°51' W 122°23'5 4.8
2014-Oct-15 13:34N 37°48' W 122°19'3 3.1
2014-Oct-15 12:34N 37°48' W 122°23'1 0.8
2014-Oct-15 11:34N 37°48' W 122°24'0 0.0
2014-Oct-15 10:34N 37°48' W 122°24'0 0.0
2014-Oct-15 09:34N 37°48' W 122°24'0 0.0
2014-Oct-15 08:34N 37°48' W 122°24'0 0.0
2014-Oct-15 07:34N 37°48' W 122°24'0 0.0
2014-Oct-15 06:34N 37°48' W 122°24'0 0.0
2014-Oct-15 05:34N 37°48' W 122°24'9 9.4
2014-Oct-15 04:33N 37°57' W 122°26'1010.0
2014-Oct-15 03:31N 38°04' W 122°15'  

Dump ship's entire track history